Home > Products > Valid Products > TAF

000
FTUS46 KLOX 230800 AAB
TAFWJF
TAF AMD
KWJF 230827Z 2308/2406 25016G30KT P6SM SCT250
     FM230900 28012KT P6SM SKC
     FM231100 29007KT P6SM SKC
     FM231800 03008KT P6SM SKC
     FM232100 04012G22KT P6SM SKC
     FM240300 04007KT P6SM SKC=



000
FTUS46 KLOX 230800 AAA
TAFPMD
TAF AMD
KPMD 230825Z 2308/2406 28015G25KT P6SM SCT250
     FM231100 24006KT P6SM SKC
     FM231800 04009KT P6SM SKC
     FM232100 06014G24KT P6SM SKC
     FM240500 07008KT P6SM SKC=



000
FTUS46 KLOX 230800 AAA
TAFLGB
TAF AMD
KLGB 230824Z 2308/2406 VRB03KT 6SM BR SCT010 BKN022
     FM231700 03008KT P6SM SCT025
     FM232300 34007KT P6SM SKC
     FM240400 VRB05KT P6SM SKC=



000
FTUS46 KLOX 230800 AAB
TAFSBP
TAF AMD
KSBP 230823Z 2308/2406 35010G20KT P6SM SCT035
     FM231000 32011KT P6SM SCT035
     FM231700 32008KT P6SM SCT040
     FM232100 33010KT P6SM SKC
     FM240300 VRB05KT P6SM SKC=



000
FTUS46 KLOX 230700 AAA
TAFWJF
TAF AMD
KWJF 230709Z 2307/2406 25016G26KT P6SM SCT250
     FM230900 28012KT P6SM SKC
     FM231100 29007KT P6SM SKC
     FM231800 03008KT P6SM SKC
     FM232100 04012G22KT P6SM SKC
     FM240300 04007KT P6SM SKC=



000
FTUS46 KLOX 230700 AAA
TAFSBP
TAF AMD
KSBP 230703Z 2307/2406 35013KT P6SM OVC035
     FM231000 32011KT P6SM OVC035
     FM231700 32008KT P6SM SCT040
     FM232100 33010KT P6SM SKC
     FM240300 VRB05KT P6SM SKC=



000
FTUS46 KLOX 230500
TAFSBA
TAF
KSBA 230538Z 2306/2406 VRB05KT P6SM BKN250 WS010/35035KT
     FM231300 04005KT P6SM SCT250
     FM231800 23007KT P6SM SKC
     FM232100 19007KT P6SM SKC
     FM240200 VRB05KT P6SM SKC=



000
FTUS46 KLOX 230500
TAFPRB
TAF
KPRB 230535Z 2306/2406 32015KT P6SM FEW006
     FM230800 32008KT P6SM FEW006
     FM231200 04006KT P6SM BKN200
     FM231800 34006KT P6SM SCT250
     FM232100 04009KT P6SM SKC
     FM240200 VRB05KT P6SM SKC=



000
FTUS46 KLOX 230500
TAFSMX
TAF
KSMX 230535Z 2306/2406 30007KT P6SM SCT006
     FM230700 35007KT P6SM SCT006 BKN250
     FM231400 35010KT P6SM BKN250
     FM231800 36014G20KT P6SM SKC
     FM232200 34010KT P6SM SKC
     FM240300 VRB05KT P6SM SKC=



000
FTUS46 KLOX 230500
TAFSBP
TAF
KSBP 230535Z 2306/2406 31015KT P6SM SCT006
     FM231000 32011KT P6SM BKN250
     FM231700 32008KT P6SM SKC
     FM232100 33010KT P6SM SKC
     FM240300 VRB05KT P6SM SKC=



000
FTUS46 KLOX 230500
TAFBUR
TAF
KBUR 230530Z 2306/2406 VRB05KT P6SM SCT250
     FM231400 34010G20KT P6SM SKC
     FM232100 03008KT P6SM SKC
     FM240200 VRB05KT P6SM SKC=



000
FTUS46 KLOX 230500
TAFLAX
TAF
KLAX 230530Z 2306/2412 16005KT P6SM FEW015 SCT250
     FM230800 VRB05KT P6SM SCT250
     FM232000 25007KT P6SM SKC
     FM232300 30008KT P6SM SKC
     FM240500 VRB05KT P6SM SKC=



000
FTUS46 KLOX 230500
TAFPMD
TAF
KPMD 230530Z 2306/2406 26015G25KT P6SM SCT250
     FM230700 29012KT P6SM SKC
     FM231100 24006KT P6SM SKC
     FM231800 04009KT P6SM SKC
     FM232100 06014G24KT P6SM SKC
     FM240500 07008KT P6SM SKC=



000
FTUS46 KLOX 230500
TAFLGB
TAF
KLGB 230530Z 2306/2406 VRB03KT 6SM BR SCT250
     FM231700 03008KT P6SM SKC
     FM232300 34007KT P6SM SKC
     FM240400 VRB05KT P6SM SKC=



000
FTUS46 KLOX 230500
TAFWJF
TAF
KWJF 230530Z 2306/2406 25016G26KT P6SM SCT250
     FM230700 28012KT P6SM SKC
     FM231100 29007KT P6SM SKC
     FM231800 03008KT P6SM SKC
     FM232100 04012G22KT P6SM SKC
     FM240300 04007KT P6SM SKC=



000
FTUS46 KLOX 230500
TAFVNY
TAF
KVNY 230530Z 2306/2406 VRB05KT P6SM SCT250
     FM231400 35010G20KT P6SM SKC
     FM231700 36016G26KT P6SM SKC
     FM232000 36020G30KT P6SM SKC
     FM240100 36015KT P6SM SKC
     FM240500 VRB05KT 6SM BR SKC=



000
FTUS46 KLOX 230400 AAB
TAFWJF
TAF AMD
KWJF 230419Z 2304/2324 25016G23KT P6SM SCT250
     FM230700 28012KT P6SM SKC
     FM231100 29007KT P6SM SKC
     FM231800 03008KT P6SM SKC
     FM232100 04012G18KT P6SM SKC=



000
FTUS46 KLOX 230400 AAB
TAFPRB
TAF AMD
KPRB 230418Z 2304/2324 32015KT P6SM SCT040
     FM230700 32008KT P6SM SCT040
     FM230900 04006KT P6SM BKN200
     FM231800 34006KT P6SM SCT250
     FM232100 04009KT P6SM SKC=



000
FTUS46 KLOX 230200 AAA
TAFLAX
TAF AMD
KLAX 230256Z 2303/2406 16005KT P6SM FEW015 SCT250
     FM230500 35007KT P6SM SCT250
     FM231100 04006KT P6SM SCT250
     FM232000 25007KT P6SM SKC
     FM232300 30008KT P6SM SKC
     FM240300 32005KT P6SM SKC=



000
FTUS46 KLOX 230200 AAB
TAFPMD
TAF AMD
KPMD 230209Z 2302/2324 26015G22KT P6SM SCT250
     FM230700 29012KT P6SM SKC
     FM231100 24006KT P6SM SKC
     FM231800 04009KT P6SM SKC
     FM232100 06014G20KT P6SM SKC=



000
FTUS46 KLOX 230200 AAB
TAFSMX
TAF AMD
KSMX 230204Z 2302/2324 31009KT P6SM OVC004
     FM230400 33008KT P6SM SCT005 SCT025
     FM230700 35007KT P6SM SCT020 BKN250
     FM231400 35010KT P6SM BKN250
     FM231800 36014G20KT P6SM SKC
     FM232200 34012KT P6SM SKC=



000
FTUS46 KLOX 230200 AAA
TAFPRB
TAF AMD
KPRB 230203Z 2302/2324 31012KT P6SM SCT035
     FM230400 36008KT P6SM SCT040
     FM230900 04006KT P6SM BKN200
     FM231800 34006KT P6SM SCT250
     FM232100 04009KT P6SM SKC=



000
FTUS46 KLOX 230200 AAA
TAFSBP
TAF AMD
KSBP 230202Z 2302/2324 34009KT P6SM BKN008 OVC013
     FM230400 33008KT P6SM SCT020
     FM231000 32011KT P6SM BKN250
     FM231700 32008KT P6SM SKC
     FM232100 33012KT P6SM SKC=



000
FTUS46 KLOX 230200 AAA
TAFSBA
TAF AMD
KSBA 230201Z 2302/2324 30012G18KT P6SM SCT250
     FM230400 34008KT P6SM BKN250 WS010/35035KT
     FM231300 04005KT P6SM SCT250
     FM231800 23007KT P6SM SKC
     FM232100 19007KT P6SM SKC=



000
FTUS46 KLOX 230100 AAA
TAFWJF
TAF AMD
KWJF 230157Z 2302/2324 25026G40KT 2SM BLDU BKN028
     FM230300 26024G32KT P6SM SCT250
     FM230700 28012KT P6SM SKC
     FM231100 29007KT P6SM SKC
     FM231800 03008KT P6SM SKC
     FM232100 04012G18KT P6SM SKC=



000
FTUS46 KLOX 230100 AAA
TAFPMD
TAF AMD
KPMD 230134Z 2302/2324 29020G28KT P6SM SCT250
      TEMPO 2302/2303 3SM BLDU
     FM230300 26015G20KT P6SM SCT250
     FM230700 29012KT P6SM SKC
     FM231100 24006KT P6SM SKC
     FM231800 04009KT P6SM SKC
     FM232100 06014G20KT P6SM SKC=



000
FTUS46 KLOX 230100 AAA
TAFSMX
TAF AMD
KSMX 230133Z 2302/2324 30011KT P6SM OVC006
     FM230300 33008KT P6SM SCT008 SCT025
     FM230700 35007KT P6SM SCT020 BKN250
     FM231400 35010KT P6SM BKN250
     FM231800 36014G20KT P6SM SKC
     FM232200 34012KT P6SM SKC=



000
FTUS46 KLOX 222300 RRA
TAFSBP
TAF
KSBP 222340Z 2300/2324 33012KT P6SM BKN015
     FM230400 33008KT P6SM SCT020
     FM231000 32011KT P6SM BKN250
     FM231700 32008KT P6SM SKC
     FM232100 33012KT P6SM SKC=



000
FTUS46 KLOX 222300 RRA
TAFSBA
TAF
KSBA 222340Z 2300/2324 31012G18KT P6SM SCT250
     FM230200 34008KT P6SM BKN250 WS010/35035KT
     FM231300 04005KT P6SM SCT250
     FM231800 23007KT P6SM SKC
     FM232100 19007KT P6SM SKC=



000
FTUS46 KLOX 222300 RRA
TAFVNY
TAF
KVNY 222340Z 2300/2324 15010KT P6SM SCT250
     FM230300 36006KT P6SM SCT250
     FM231400 35010G15KT P6SM SKC
     FM231700 36016G23KT P6SM SKC
     FM232000 36020G28KT P6SM SKC=



000
FTUS46 KLOX 222300 RRA
TAFPMD
TAF
KPMD 222340Z 2300/2324 29028G34KT P6SM SCT250
     FM230300 26015G20KT P6SM SCT250
     FM230700 29012KT P6SM SKC
     FM231100 24006KT P6SM SKC
     FM231800 04009KT P6SM SKC
     FM232100 06014G20KT P6SM SKC=



000
FTUS46 KLOX 222300 RRA
TAFLGB
TAF
KLGB 222340Z 2300/2324 30008KT P6SM SCT250
     FM230500 VRB03KT P6SM SCT250
     FM231700 03008KT P6SM SKC
     FM232300 34007KT P6SM SKC=



000
FTUS46 KLOX 222300 RRA
TAFWJF
TAF
KWJF 222340Z 2300/2324 26030G38KT P6SM SCT250
     FM230300 26024G32KT P6SM SKC
     FM230700 28012KT P6SM SKC
     FM231100 29007KT P6SM SKC
     FM231800 03008KT P6SM SKC
     FM232100 04012G18KT P6SM SKC=



000
FTUS46 KLOX 222300 RRA
TAFLAX
TAF
KLAX 222340Z 2300/2406 26009KT P6SM SCT250
     FM230500 35007KT P6SM SCT250
     FM231100 04006KT P6SM SCT250
     FM232000 25007KT P6SM SKC
     FM232300 30008KT P6SM SKC
     FM240300 32005KT P6SM SKC=



000
FTUS46 KLOX 222300 RRA
TAFPRB
TAF
KPRB 222340Z 2300/2324 32008KT P6SM SCT050 BKN080
     FM230200 36008KT P6SM SCT040
     FM230900 04006KT P6SM BKN200
     FM231800 34006KT P6SM SCT250
     FM232100 04009KT P6SM SKC=



000
FTUS46 KLOX 222300 RRA
TAFBUR
TAF
KBUR 222340Z 2300/2324 18005KT P6SM SCT250
     FM230200 36006KT P6SM SCT250
     FM231400 34010G15KT P6SM SKC
     FM232100 03008KT P6SM SKC=



000
FTUS46 KLOX 222300 RRA
TAFSMX
TAF
KSMX 222340Z 2300/2324 29016KT P6SM SCT010 BKN020
     FM230300 33008KT P6SM SCT025
     FM230700 35007KT P6SM SCT020 BKN250
     FM231400 35010KT P6SM BKN250
     FM231800 36014G20KT P6SM SKC
     FM232200 34012KT P6SM SKC=



000
FTUS46 KLOX 222100 AAB
TAFPMD
TAF AMD
KPMD 222147Z 2222/2318 26025G35KT 3SM BLDU SCT250
     FM230300 26015G20KT P6SM SCT250
     FM230700 29012KT P6SM BKN200
     FM231100 24006KT P6SM SCT250=



000
FTUS46 KLOX 222000 AAA
TAFLAX
TAF AMD
KLAX 222045Z 2221/2324 27009KT P6SM SCT250
     FM230500 35007KT P6SM BKN250
     FM231100 04006KT P6SM BKN250
     FM232000 25007KT P6SM SCT250=



000
FTUS46 KLOX 222000 AAA
TAFSBP
TAF AMD
KSBP 222013Z 2220/2318 32012G23KT P6SM BKN028 BKN035
      TEMPO 2223/2302 BKN015
     FM230400 33007KT P6SM SCT040
     FM230900 VRB03KT P6SM BKN250=



000
FTUS46 KLOX 221800 AAA
TAFWJF
TAF AMD
KWJF 221859Z 2219/2318 27030G35KT 6SM BLDU SCT250
     FM230700 28012KT P6SM BKN200
     FM231100 VRB03KT P6SM SCT250=



000
FTUS46 KLOX 221700 AAA
TAFPMD
TAF AMD
KPMD 221759Z 2218/2318 29015KT P6SM SCT250
     FM222000 26025G35KT P6SM SCT250
     FM230300 26015G20KT P6SM SCT250
     FM230700 29012KT P6SM BKN200
     FM231100 24006KT P6SM SCT250=



000
FTUS46 KLOX 221700
TAFPMD
TAF
KPMD 221738Z 2218/2318 00000KT P6SM SCT250
     FM222000 26025G35KT P6SM SCT250
     FM230300 26015G20KT P6SM SCT250
     FM230700 29012KT P6SM BKN200
     FM231100 24006KT P6SM SCT250=



000
FTUS46 KLOX 221700
TAFSMX
TAF
KSMX 221738Z 2218/2318 00000KT P6SM SCT250
     FM222000 31015KT P6SM SCT030
     FM222200 31013KT P6SM OVC020
      TEMPO 2222/2302 OVC010
     FM230300 33008KT P6SM SCT025
      TEMPO 2303/2307 BKN020
     FM230700 35007KT P6SM SCT020 BKN250=



000
FTUS46 KLOX 221700
TAFBUR
TAF
KBUR 221738Z 2218/2318 00000KT P6SM BKN250
     FM222100 17008KT P6SM SCT250
     FM230400 VRB03KT P6SM BKN250
     FM230800 36007KT P6SM BKN250=



000
FTUS46 KLOX 221700
TAFPRB
TAF
KPRB 221738Z 2218/2318 00000KT P6SM SCT250
     FM222000 31006KT P6SM BKN040
     FM230200 36008KT P6SM SCT040
     FM230900 04006KT P6SM BKN200=



000
FTUS46 KLOX 221700
TAFWJF
TAF
KWJF 221738Z 2218/2318 27025G30KT 3SM BLDU SCT001 SCT250
     FM222000 26025G35KT P6SM SCT250
     FM230700 28012KT P6SM BKN200
     FM231100 VRB03KT P6SM SCT250=



000
FTUS46 KLOX 221700
TAFLGB
TAF
KLGB 221738Z 2218/2318 VRB03KT P6SM SCT250
     FM222000 20007KT P6SM SCT250
     FM222300 29008KT P6SM SCT250
     FM230500 VRB03KT P6SM BKN250=



000
FTUS46 KLOX 221700
TAFSBA
TAF
KSBA 221738Z 2218/2318 00000KT P6SM SCT250
     FM222100 27010KT P6SM SCT250
     FM230200 34008KT P6SM BKN250 WS010/35035KT
     FM231300 04005KT P6SM SCT250=



000
FTUS46 KLOX 221700
TAFLAX
TAF
KLAX 221738Z 2218/2324 06004KT P6SM SCT250
     FM222000 27009KT P6SM SCT200
     FM230500 35007KT P6SM BKN250
     FM231100 04006KT P6SM BKN250
     FM232000 25007KT P6SM SCT250=



000
FTUS46 KLOX 221700
TAFVNY
TAF
KVNY 221738Z 2218/2318 00000KT P6SM BKN250
     FM222200 14008KT P6SM SCT250
     FM230500 35010KT P6SM BKN250=



000
FTUS46 KLOX 221700
TAFSBP
TAF
KSBP 221738Z 2218/2318 31005KT P6SM SCT040
     FM222000 31010KT P6SM BKN035
      TEMPO 2223/2302 BKN015
     FM230400 33007KT P6SM SCT040
     FM230900 VRB03KT P6SM BKN250=



000
FTUS46 KLOX 221600 AAA
TAFLGB
TAF AMD
KLGB 221622Z 2216/2312 00000KT P6SM OVC013
     FM221730 VRB04KT P6SM SCT250
     FM222000 20007KT P6SM BKN200
     FM222300 29008KT P6SM BKN200
     FM230500 VRB03KT P6SM BKN200=



000
FTUS46 KLOX 221400 AAA
TAFLAX
TAF AMD
KLAX 221441Z 2215/2318 05006KT P6SM SCT250
     FM221700 VRB03KT P6SM SCT250
     FM222000 27012KT P6SM BKN200
     FM230500 35008KT P6SM BKN200
     FM231100 VRB03KT P6SM SCT200=



000
FTUS46 KLOX 221100
TAFWJF
TAF
KWJF 221128Z 2212/2312 26006KT P6SM SCT200
     FM221800 26018G25KT P6SM BKN200
     FM222000 26025G35KT P6SM BKN200
     FM230300 26018G25KT P6SM BKN200
     FM230700 28012KT P6SM BKN200=



000
FTUS46 KLOX 221100
TAFSMX
TAF
KSMX 221128Z 2212/2312 VRB03KT P6SM BKN200
     FM222000 31015KT P6SM BKN080
     FM230400 31006KT P6SM BKN050
     FM230900 VRB03KT P6SM SCT200=



000
FTUS46 KLOX 221100
TAFLAX
TAF
KLAX 221128Z 2212/2318 05006KT P6SM SCT200
     FM221700 VRB03KT P6SM SCT200
     FM222000 27012KT P6SM BKN200
     FM230500 35008KT P6SM BKN200
     FM231100 VRB03KT P6SM SCT200=



000
FTUS46 KLOX 221100
TAFLGB
TAF
KLGB 221128Z 2212/2312 VRB03KT P6SM SCT200
     FM222000 20007KT P6SM BKN200
     FM222300 29008KT P6SM BKN200
     FM230500 VRB03KT P6SM BKN200=



000
FTUS46 KLOX 221100
TAFBUR
TAF
KBUR 221128Z 2212/2312 VRB03KT P6SM SCT250
     FM222100 17008KT P6SM BKN200
     FM230400 VRB03KT P6SM BKN200
     FM230800 02007KT P6SM SCT200=



000
FTUS46 KLOX 221100
TAFPMD
TAF
KPMD 221128Z 2212/2312 27006KT P6SM SCT200
     FM221800 26018G25KT P6SM BKN200
     FM222000 26025G35KT P6SM BKN200
     FM230300 26018G25KT P6SM BKN200
     FM230700 29012KT P6SM BKN200=



000
FTUS46 KLOX 221100
TAFSBA
TAF
KSBA 221128Z 2212/2312 VRB03KT P6SM BKN200
     FM221800 20006KT P6SM BKN200
     FM222100 27010KT P6SM BKN200
     FM230200 34008KT P6SM BKN200 WS010/35035KT=



000
FTUS46 KLOX 221100
TAFVNY
TAF
KVNY 221128Z 2212/2312 01007KT P6SM SCT250
     FM222200 14008KT P6SM BKN200
     FM230500 35010KT P6SM BKN200=



000
FTUS46 KLOX 221100
TAFSBP
TAF
KSBP 221128Z 2212/2312 VRB03KT P6SM BKN200
     FM222000 31015KT P6SM BKN080
     FM230400 31006KT P6SM BKN050
     FM230900 VRB03KT P6SM SCT200=



000
FTUS46 KLOX 221100
TAFPRB
TAF
KPRB 221128Z 2212/2312 VRB03KT P6SM BKN200
     FM222000 31008KT P6SM BKN080
     FM230400 VRB03KT P6SM BKN050
     FM230900 VRB03KT P6SM SCT200=



000
FTUS46 KLOX 220900 AAA
TAFLAX
TAF AMD
KLAX 220903Z 2209/2312 05006KT P6SM SCT250
     FM221700 VRB03KT P6SM SCT250
     FM222000 27012KT P6SM BKN200
     FM230400 27006KT P6SM BKN200
     FM230800 VRB03KT 5SM BR BKN200=



000
FTUS46 KLOX 220500 RRA
TAFVNY
TAF
KVNY 220541Z 2206/2306 01007KT P6SM SCT250
     FM222200 14008KT P6SM BKN200
     FM230300 VRB03KT P6SM BKN200=



000
FTUS46 KLOX 220500 RRA
TAFPRB
TAF
KPRB 220541Z 2206/2306 VRB03KT P6SM SCT200
     FM221100 VRB03KT 5SM BR BKN015
     FM221600 VRB03KT 6SM BR SCT015 SCT250
     FM221800 VRB03KT P6SM SCT250
     FM222000 31008KT P6SM BKN080
     FM230400 VRB03KT P6SM BKN050=



000
FTUS46 KLOX 220500 RRA
TAFLAX
TAF
KLAX 220541Z 2206/2312 36007KT P6SM SCT250
     FM221000 05006KT P6SM SCT250
     FM221700 VRB03KT P6SM SCT250
     FM222000 27012KT P6SM BKN200
     FM230400 27006KT P6SM BKN200
     FM230800 VRB03KT 5SM BR BKN200=



000
FTUS46 KLOX 220500 RRA
TAFSBP
TAF
KSBP 220541Z 2206/2306 VRB03KT P6SM SCT200
     FM221200 VRB03KT 4SM BR SCT015 SCT200
     FM221600 VRB03KT P6SM SCT025 SCT100
     FM222000 31014KT P6SM BKN080
     FM230400 31006KT P6SM BKN050=



000
FTUS46 KLOX 220500 RRA
TAFSMX
TAF
KSMX 220541Z 2206/2306 VRB03KT P6SM SCT200
     FM221200 VRB03KT 4SM BR SCT015 SCT200
     FM221600 VRB03KT P6SM SCT025 SCT100
     FM222000 31014KT P6SM BKN080
     FM230400 31006KT P6SM BKN050=



000
FTUS46 KLOX 220500 RRA
TAFBUR
TAF
KBUR 220541Z 2206/2306 VRB03KT P6SM SCT250
     FM221500 02008KT P6SM SCT250
     FM222100 17008KT P6SM BKN200
     FM230400 VRB03KT P6SM BKN200=



000
FTUS46 KLOX 220500 RRA
TAFPMD
TAF
KPMD 220541Z 2206/2306 27006KT P6SM SCT200
     FM221800 26018G25KT P6SM BKN200
     FM222000 26025G35KT P6SM BKN200
     FM230300 26018G25KT P6SM BKN200=



000
FTUS46 KLOX 220500 RRA
TAFWJF
TAF
KWJF 220541Z 2206/2306 26006KT P6SM SCT200
     FM221800 26018G25KT P6SM BKN200
     FM222000 26025G35KT P6SM BKN200
     FM230300 26018G25KT P6SM BKN200=



000
FTUS46 KLOX 220500 RRA
TAFLGB
TAF
KLGB 220541Z 2206/2306 VRB03KT P6SM SCT250
     FM222000 20007KT P6SM BKN200
     FM222300 29008KT P6SM BKN200
     FM230500 VRB03KT P6SM BKN200=



000
FTUS46 KLOX 220500 RRA
TAFSBA
TAF
KSBA 220541Z 2206/2306 36006KT P6SM BKN250 WS010/36030KT
     FM221200 VRB03KT P6SM BKN200
     FM221800 20006KT P6SM BKN200
     FM222100 27010KT P6SM BKN200
     FM230200 34008KT P6SM BKN200 WS010/35035KT=



000
FTUS46 KLOX 220300 AAA
TAFLAX
TAF AMD
KLAX 220311Z 2203/2306 VRB03KT P6SM SCT250
     FM221000 05005KT P6SM SCT250
     FM221700 VRB03KT P6SM SCT250
     FM222000 27011KT P6SM SCT250
     FM230300 28006KT P6SM BKN250=



000
FTUS46 KLOX 220000 AAA
TAFSBP
TAF AMD
KSBP 220018Z 2200/2224 32011KT P6SM FEW035 SCT200
     FM220200 32007KT P6SM BKN200
     FM221000 VRB03KT P6SM SCT250
     FM221400 35003KT 4SM BR SCT030 SCT250
     FM221800 31007KT P6SM SCT025 SCT100
     FM222000 31011KT P6SM SCT020 SCT080
     FM222300 31014KT P6SM BKN020=



000
FTUS46 KLOX 212300 RRA
TAFVNY
TAF
KVNY 212340Z 2200/2224 34005KT P6SM SCT250
     FM220200 35010KT P6SM SCT250
     FM221100 35004KT P6SM SCT250
     FM221600 34009KT P6SM SCT250
     FM222100 30007KT P6SM SCT250=



000
FTUS46 KLOX 212300 RRA
TAFSMX
TAF
KSMX 212340Z 2200/2224 31013KT P6SM SCT250
     FM220300 30007KT P6SM BKN200
     FM220700 VRB03KT P6SM SCT250
     FM221400 VRB03KT 4SM BR SCT250
     FM221800 33006KT P6SM SCT025 SCT250
     FM222000 30013KT P6SM SCT020 SCT250
     FM222300 30016G22KT P6SM BKN020=



000
FTUS46 KLOX 212300 RRA
TAFSBA
TAF
KSBA 212340Z 2200/2224 25008KT P6SM SCT250 WS010/36025KT
     FM220200 36006KT P6SM BKN250 WS010/36030KT
     FM221200 VRB03KT P6SM SCT250
     FM221800 29006KT P6SM SCT250
     FM222100 27010KT P6SM SCT250=



000
FTUS46 KLOX 212300 RRA
TAFLAX
TAF
KLAX 212340Z 2200/2306 27011KT P6SM SCT250
     FM220200 30006KT P6SM SCT250
     FM220500 VRB04KT P6SM SCT250
     FM221000 05005KT P6SM SCT250
     FM221700 VRB03KT P6SM SCT250
     FM222000 27011KT P6SM SCT250
     FM230300 28006KT P6SM BKN250=



000
FTUS46 KLOX 212300 RRA
TAFLGB
TAF
KLGB 212340Z 2200/2224 30009KT P6SM SCT250
     FM220400 34004KT P6SM SCT250
     FM222000 21006KT P6SM SCT250
     FM222300 29008KT P6SM SCT250=



000
FTUS46 KLOX 212300 RRA
TAFSBP
TAF
KSBP 212340Z 2200/2224 36009G15KT P6SM SCT250
     FM220200 32007KT P6SM BKN200
     FM221000 VRB03KT P6SM SCT250
     FM221400 35003KT 4SM BR SCT030 SCT250
     FM221800 31007KT P6SM SCT025 SCT100
     FM222000 31011KT P6SM SCT020 SCT080
     FM222300 31014KT P6SM BKN020=



000
FTUS46 KLOX 212300 RRA
TAFPRB
TAF
KPRB 212340Z 2200/2224 08007KT P6SM SCT035 BKN250
     FM220300 VRB03KT P6SM BKN100 OVC250
     FM221000 VRB03KT 5SM BR BKN015
     FM221600 VRB03KT 5SM BR SCT015 SCT250
     FM221800 VRB03KT 6SM BR SCT250
     FM222000 31005KT P6SM BKN060
     FM222300 33012KT P6SM BKN040=



000
FTUS46 KLOX 212300 RRA
TAFBUR
TAF
KBUR 212340Z 2200/2224 17006KT P6SM SCT250
     FM220200 35006KT P6SM SCT250
     FM220900 VRB03KT P6SM SCT250
     FM221600 01010KT P6SM SCT250
     FM222000 30010KT P6SM SCT250
     FM222200 17008KT P6SM SCT250=



000
FTUS46 KLOX 212300 RRA
TAFWJF
TAF
KWJF 212340Z 2200/2224 27018G24KT P6SM SKC
     FM220200 27012KT P6SM SCT250
     FM220500 26008KT P6SM SCT250
     FM221400 26012KT P6SM SKC
     FM221800 26017G24KT P6SM SKC
     FM222000 26028G36KT P6SM SKC=



000
FTUS46 KLOX 212300 RRA
TAFPMD
TAF
KPMD 212340Z 2200/2224 30012G18KT P6SM SKC
     FM220300 27006KT P6SM SCT250
     FM221400 23011KT P6SM SKC
     FM221800 28016G23KT P6SM SKC
     FM222000 28028G36KT P6SM SKC=



000
FTUS46 KLOX 212000 AAA
TAFWJF
TAF AMD
KWJF 212036Z 2121/2218 29014KT P6SM SKC
     FM220400 29007KT P6SM BKN250=



000
FTUS46 KLOX 212000 AAA
TAFSBP
TAF AMD
KSBP 212036Z 2121/2218 35009KT P6SM SCT030
     FM212200 32010G16KT P6SM BKN250
     FM220200 32007KT P6SM BKN150
     FM221000 VRB04KT P6SM BKN250=



000
FTUS46 KLOX 212000 AAA
TAFLAX
TAF AMD
KLAX 212035Z 2121/2224 27011KT P6SM SCT250
     FM220200 30006KT P6SM SCT250
     FM220400 VRB04KT P6SM BKN250
     FM221000 05005KT P6SM BKN250
     FM221700 VRB03KT P6SM SCT250
     FM222000 27010KT P6SM SCT250=



000
FTUS46 KLOX 212000 AAA
TAFPMD
TAF AMD
KPMD 212035Z 2121/2218 01008KT P6SM SKC
     FM212200 31010KT P6SM SCT250
     FM220300 27006KT P6SM BKN250
     FM221000 24007KT P6SM SCT250=



000
FTUS46 KLOX 211900 AAA
TAFPRB
TAF AMD
KPRB 211939Z 2120/2218 00000KT P6SM BKN014
     FM212030 34005KT P6SM BKN250
     FM220100 VRB04KT P6SM BKN120
     FM220800 VRB03KT P6SM SCT150 BKN250=



000
FTUS46 KLOX 211900 AAA
TAFSBA
TAF AMD
KSBA 211938Z 2120/2218 01015KT P6SM SKC
     FM212200 27010KT P6SM SCT250
     FM220100 32006KT P6SM SCT250
     FM220500 VRB03KT P6SM BKN250=



000
FTUS46 KLOX 211700
TAFWJF
TAF
KWJF 211721Z 2118/2218 28014KT P6SM SKC
     FM220400 29007KT P6SM BKN250=



000
FTUS46 KLOX 211700
TAFBUR
TAF
KBUR 211721Z 2118/2218 29008KT P6SM SKC
     FM220300 VRB03KT P6SM SCT250=



000
FTUS46 KLOX 211700
TAFLAX
TAF
KLAX 211721Z 2118/2224 31007KT P6SM SCT250
     FM211900 27012KT P6SM SCT250
     FM220200 30006KT P6SM SCT250
     FM220400 VRB04KT P6SM BKN250
     FM221000 05005KT P6SM BKN250
     FM221700 VRB03KT P6SM SCT250
     FM222000 27010KT P6SM SCT250=



000
FTUS46 KLOX 211700
TAFVNY
TAF
KVNY 211721Z 2118/2218 34007KT P6SM SKC
     FM220100 35006KT P6SM SCT250
     FM220700 VRB03KT P6SM SCT250=



000
FTUS46 KLOX 211700
TAFLGB
TAF
KLGB 211721Z 2118/2218 03006KT P6SM SKC
     FM212000 29010KT P6SM SCT250
     FM220200 30006KT P6SM SCT250
     FM220500 VRB03KT P6SM SKC=



000
FTUS46 KLOX 211700
TAFPMD
TAF
KPMD 211721Z 2118/2218 31012KT P6SM SKC
     FM212200 31010KT P6SM SCT250
     FM220300 27006KT P6SM BKN250
     FM221000 24007KT P6SM SCT250=



000
FTUS46 KLOX 211700
TAFSMX
TAF
KSMX 211721Z 2118/2218 32008KT P6SM SCT250
     FM212000 31012G18KT P6SM SCT250
     FM220300 30007KT P6SM BKN180
     FM220700 VRB03KT P6SM BKN250=



000
FTUS46 KLOX 211700
TAFSBA
TAF
KSBA 211721Z 2118/2218 VRB03KT P6SM SCT250
     FM211900 27010KT P6SM SCT250
     FM220100 32006KT P6SM SCT250
     FM220500 VRB03KT P6SM BKN250=



000
FTUS46 KLOX 211700
TAFPRB
TAF
KPRB 211721Z 2118/2218 04004KT P6SM OVC006
     FM212100 34005KT P6SM OVC200
     FM220100 VRB04KT P6SM BKN120
     FM220800 VRB03KT P6SM SCT150 BKN250=



000
FTUS46 KLOX 211700
TAFSBP
TAF
KSBP 211721Z 2118/2218 35006KT P6SM SCT050
     FM212000 32010G16KT P6SM BKN250
     FM220200 32007KT P6SM BKN150
     FM221000 VRB04KT P6SM BKN250=



000
FTUS46 KLOX 211600 AAA
TAFSBA
TAF AMD
KSBA 211646Z 2117/2212 33015KT P6SM FEW045
     FM211900 27010KT P6SM SCT050 SCT250
     FM220100 32006KT P6SM SCT200
     FM220500 VRB03KT P6SM SCT200=



000
FTUS46 KLOX 211400 AAA
TAFLAX
TAF AMD
KLAX 211438Z 2115/2218 28007KT P6SM FEW024 SCT080
     FM211900 26012KT P6SM SCT050
     FM220200 30006KT P6SM SCT200
     FM220400 VRB04KT P6SM SKC
     FM221000 05005KT P6SM SKC
     FM221700 VRB03KT P6SM SCT200=



000
FTUS46 KLOX 211400 AAC
TAFSMX
TAF AMD
KSMX 211417Z 2114/2212 VRB03KT P6SM SKC
     FM212000 31012G18KT P6SM SCT025 BKN050
     FM220300 30007KT P6SM SCT200
     FM220500 VRB03KT P6SM SCT200=



000
FTUS46 KLOX 211400 AAB
TAFPRB
TAF AMD
KPRB 211415Z 2114/2212 VRB03KT 6SM BR OVC003
     FM211600 VRB03KT P6SM BKN005 BKN015
     FM212100 34005KT P6SM SCT200
     FM220400 VRB04KT P6SM SCT200=



000
FTUS46 KLOX 211200 AAB
TAFSMX
TAF AMD
KSMX 211224Z 2112/2212 VRB03KT 4SM BR FEW003
     FM211500 VRB03KT 5SM BR SCT006 SCT040
     FM212000 31012G18KT P6SM SCT025 BKN050
     FM220300 30007KT P6SM SCT200
     FM220500 VRB03KT P6SM SCT200=



000
FTUS46 KLOX 211200 AAA
TAFPRB
TAF AMD
KPRB 211224Z 2112/2212 VRB03KT 3SM BR BKN005
     FM211400 VRB03KT P6SM BKN012 BKN040
     FM212100 34005KT P6SM SCT200
     FM220400 VRB04KT P6SM SCT200=



000
FTUS46 KLOX 211100 AAA
TAFSMX
TAF AMD
KSMX 211158Z 2112/2212 VRB03KT 4SM BR VV003
     FM211500 VRB03KT 5SM BR SCT006 SCT040
     FM212000 31012G18KT P6SM SCT025 BKN050
     FM220300 30007KT P6SM SCT200
     FM220500 VRB03KT P6SM SCT200=



000
FTUS46 KLOX 211100 RRA
TAFVNY
TAF
KVNY 211154Z 2112/2212 33005KT P6SM -SHRA SCT025 BKN040
     FM211400 35008KT P6SM SCT025 SCT050
     FM211800 36010KT P6SM SCT050 SCT250
     FM220100 35006KT P6SM SCT250=



000
FTUS46 KLOX 211100 RRA
TAFBUR
TAF
KBUR 211154Z 2112/2212 VRB03KT P6SM FEW050
     FM211500 34008KT P6SM SCT025 SCT050
     FM220300 VRB03KT P6SM SCT200=



000
FTUS46 KLOX 211100 RRA
TAFPMD
TAF
KPMD 211154Z 2112/2212 27008KT P6SM SCT050 SCT250
     FM212200 31010KT P6SM SCT050 SCT250
     FM220300 27006KT P6SM SCT250=



000
FTUS46 KLOX 211100 RRA
TAFSBA
TAF
KSBA 211154Z 2112/2212 VRB04KT P6SM SCT200
     FM211900 27010KT P6SM SCT050 SCT250
     FM220100 32006KT P6SM SCT200
     FM220500 VRB03KT P6SM SCT200=



000
FTUS46 KLOX 211100 RRA
TAFLGB
TAF
KLGB 211154Z 2112/2212 29009KT P6SM SCT035
     FM211500 31006KT P6SM SCT025 SCT050
     FM212000 29010KT P6SM SCT050 SCT250
     FM220200 30006KT P6SM SCT200
     FM220500 VRB03KT P6SM SKC=



000
FTUS46 KLOX 211100 RRA
TAFSBP
TAF
KSBP 211154Z 2112/2212 VRB03KT P6SM SKC
     FM211600 33007KT P6SM SCT050
     FM212000 32010G16KT P6SM SCT025 BKN050
     FM220300 32007KT P6SM SCT200
     FM220600 VRB04KT P6SM SCT200=



000
FTUS46 KLOX 211100 RRA
TAFSMX
TAF
KSMX 211154Z 2112/2212 VRB03KT 1/2SM FG VV003
     FM211500 VRB03KT 5SM BR SCT006 SCT040
     FM212000 31012G18KT P6SM SCT025 BKN050
     FM220300 30007KT P6SM SCT200
     FM220500 VRB03KT P6SM SCT200=



000
FTUS46 KLOX 211100 RRA
TAFWJF
TAF
KWJF 211154Z 2112/2212 27008KT P6SM SCT050 SCT250
     FM212200 31010KT P6SM SCT050 SCT250
     FM220300 29006KT P6SM SCT250=



000
FTUS46 KLOX 211100 RRA
TAFPRB
TAF
KPRB 211154Z 2112/2212 VRB03KT P6SM SCT013
     FM211400 VRB03KT P6SM BKN012 BKN040
     FM212100 34005KT P6SM SCT200
     FM220400 VRB04KT P6SM SCT200=



000
FTUS46 KLOX 211100 RRA
TAFLAX
TAF
KLAX 211154Z 2112/2218 VRB03KT P6SM SCT025 SCT080
     FM211600 VRB03KT P6SM SCT050
     FM211900 26012KT P6SM SCT050
     FM220200 30006KT P6SM SCT200
     FM220400 VRB04KT P6SM SKC
     FM221000 05005KT P6SM SKC
     FM221700 VRB03KT P6SM SCT200=



000
FTUS46 KLOX 210900 AAB
TAFLAX
TAF AMD
KLAX 210908Z 2109/2212 26009KT P6SM FEW060 SCT100
     FM211200 02005KT P6SM SCT025 SCT050
     FM211600 VRB03KT P6SM SCT040
     FM211900 26012KT P6SM SCT050
     FM220200 30006KT P6SM SCT200
     FM220800 VRB03KT P6SM SKC=



000
FTUS46 KLOX 210800 AAB
TAFSMX
TAF AMD
KSMX 210851Z 2109/2206 VRB03KT 1SM BR VV003
     FM211000 VRB03KT 4SM BR VCFG OVC004
     FM211600 32007KT P6SM FEW025 SCT050
     FM212000 31012G18KT P6SM SCT025 SCT050
     FM220300 30007KT P6SM SCT250=



000
FTUS46 KLOX 210800 AAB
TAFSBP
TAF AMD
KSBP 210850Z 2109/2206 VRB03KT P6SM SCT017 OVC050
     FM211600 33007KT P6SM FEW025 SCT050
     FM212000 32010G16KT P6SM SCT025 SCT050
     FM220300 32007KT P6SM SCT250=



000
FTUS46 KLOX 210800 AAA
TAFPRB
TAF AMD
KPRB 210850Z 2109/2206 VRB03KT 3SM BR BKN009
     FM211300 VRB03KT 5SM BR OVC012
     FM211700 34005KT 6SM BR SCT025 BKN050
     FM220200 10008KT P6SM SCT250=



000
FTUS46 KLOX 210800 AAA
TAFLGB
TAF AMD
KLGB 210813Z 2108/2206 29009KT P6SM SCT120
      TEMPO 2109/2111 -SHRA OVC025
     FM211500 31006KT P6SM SCT025 SCT050
     FM212000 29010KT P6SM SCT050 SCT250
     FM220200 30006KT P6SM SCT250=



000
FTUS46 KLOX 210800 AAA
TAFSBP
TAF AMD
KSBP 210812Z 2108/2206 VRB03KT P6SM BKN018
     FM211000 VRB03KT 4SM BR VCFG OVC004
     FM211600 33007KT P6SM FEW025 SCT050
     FM212000 32010G16KT P6SM SCT025 SCT050
     FM220300 32007KT P6SM SCT250=



000
FTUS46 KLOX 210800 AAA
TAFSMX
TAF AMD
KSMX 210812Z 2108/2206 VRB03KT 5SM BR SCT015
     FM211000 VRB03KT 4SM BR VCFG OVC004
     FM211600 32007KT P6SM FEW025 SCT050
     FM212000 31012G18KT P6SM SCT025 SCT050
     FM220300 30007KT P6SM SCT250=



000
FTUS46 KLOX 210700 CCA
TAFLAX
TAF COR
KLAX 210748Z 2108/2212 VRB03KT P6SM FEW060 SCT100
     FM210900 28008KT P6SM VCSH BKN040
     FM211200 02005KT P6SM SCT025 SCT050
     FM211600 VRB03KT P6SM SCT040
     FM211900 26012KT P6SM SCT050
     FM220200 30006KT P6SM SCT200
     FM220800 VRB03KT P6SM SKC=



000
FTUS46 KLOX 210700 AAA
TAFLAX
TAF AMD
KLAX 210747Z 2108/2212 VRB03KT P6SM FEW060 SCT100
     FM210900 33005KT P6SM VCSH BKN040
     FM211200 02005KT P6SM SCT025 SCT050
     FM211600 VRB03KT P6SM SCT040
     FM211900 26012KT P6SM SCT050
     FM220200 30006KT P6SM SCT200
     FM220800 VRB03KT P6SM SKC=



000
FTUS46 KLOX 210700 AAB
TAFWJF
TAF AMD
KWJF 210727Z 2107/2206 27012KT P6SM VCSH SCT025 BKN050
     FM210900 27008KT P6SM SCT050 SCT250
     FM212200 31010KT P6SM SCT050 SCT250
     FM220300 29006KT P6SM SCT250=



000
FTUS46 KLOX 210700 AAB
TAFPMD
TAF AMD
KPMD 210727Z 2107/2206 27010KT P6SM VCSH SCT025 BKN050
     FM210900 27008KT P6SM SCT050 SCT250
     FM212200 31010KT P6SM SCT050 SCT250
     FM220300 27006KT P6SM SCT250=



000
FTUS46 KLOX 210600 AAA
TAFPMD
TAF AMD
KPMD 210618Z 2106/2206 22012G18KT P6SM VCSH SCT025 BKN050
     FM210900 27008KT P6SM SCT050 SCT250
     FM212200 31010KT P6SM SCT050 SCT250
     FM220300 27006KT P6SM SCT250=



000
FTUS46 KLOX 210600 AAA
TAFWJF
TAF AMD
KWJF 210618Z 2106/2206 22015KT P6SM VCSH SCT025 BKN050
     FM210900 27008KT P6SM SCT050 SCT250
     FM212200 31010KT P6SM SCT050 SCT250
     FM220300 29006KT P6SM SCT250=



000
FTUS46 KLOX 210500 RRA
TAFPRB
TAF
KPRB 210559Z 2106/2206 21007KT P6SM VCSH SCT025 OVC050
     FM210900 VRB03KT 4SM BR VCFG OVC004
     FM211700 34005KT 6SM BR SCT025 BKN050
     FM220200 10008KT P6SM SCT250=



000
FTUS46 KLOX 210500 RRA
TAFLAX
TAF
KLAX 210559Z 2106/2212 28009KT P6SM VCSH SCT025 BKN040
      TEMPO 2106/2108 -SHRA OVC025
     FM211500 31005KT P6SM SCT025 SCT050
     FM211900 28012KT P6SM SCT050 SCT250
     FM220200 30006KT P6SM SCT250
     FM220800 VRB03KT P6SM SCT250=



000
FTUS46 KLOX 210500 RRA
TAFPMD
TAF
KPMD 210559Z 2106/2206 27010KT P6SM VCSH SCT025 BKN050
     FM210900 27008KT P6SM SCT050 SCT250
     FM212200 31010KT P6SM SCT050 SCT250
     FM220300 27006KT P6SM SCT250=



000
FTUS46 KLOX 210500 RRA
TAFWJF
TAF
KWJF 210559Z 2106/2206 26015KT P6SM VCSH SCT025 BKN050
     FM210900 27008KT P6SM SCT050 SCT250
     FM212200 31010KT P6SM SCT050 SCT250
     FM220300 29006KT P6SM SCT250=



000
FTUS46 KLOX 210500 RRA
TAFLGB
TAF
KLGB 210559Z 2106/2206 29009KT P6SM VCSH SCT025 BKN040
      TEMPO 2107/2109 -SHRA OVC025
     FM211500 31006KT P6SM SCT025 SCT050
     FM212000 29010KT P6SM SCT050 SCT250
     FM220200 30006KT P6SM SCT250=



000
FTUS46 KLOX 210500 RRA
TAFSMX
TAF
KSMX 210559Z 2106/2206 VRB03KT P6SM VCSH SCT025 BKN050
     FM211000 VRB03KT 4SM BR VCFG OVC004
     FM211600 32007KT P6SM FEW025 SCT050
     FM212000 31012G18KT P6SM SCT025 SCT050
     FM220300 30007KT P6SM SCT250=



000
FTUS46 KLOX 210500 RRA
TAFSBP
TAF
KSBP 210559Z 2106/2206 VRB03KT P6SM VCSH SCT025 BKN050
     FM210900 VRB03KT 4SM BR VCFG OVC004
     FM211600 33007KT P6SM FEW025 SCT050
     FM212000 32010G16KT P6SM SCT025 SCT050
     FM220300 32007KT P6SM SCT250=



000
FTUS46 KLOX 210500 RRA
TAFVNY
TAF
KVNY 210559Z 2106/2206 33005KT P6SM -SHRA SCT025 BKN040
      TEMPO 2106/2107 OVC025
     FM211400 35008KT P6SM SCT025 SCT050
     FM211800 36010KT P6SM SCT050 SCT250
     FM220100 35006KT P6SM SCT250=



000
FTUS46 KLOX 210500 RRA
TAFBUR
TAF
KBUR 210559Z 2106/2206 33005KT P6SM -SHRA SCT025 BKN040
      TEMPO 2106/2107 OVC025
     FM211500 34008KT P6SM SCT025 SCT050
     FM220200 34004KT P6SM SCT250=



000
FTUS46 KLOX 210500 RRA
TAFSBA
TAF
KSBA 210559Z 2106/2206 30008KT P6SM SCT050 BKN100
      TEMPO 2109/2111 -SHRA BKN025
     FM211200 VRB04KT P6SM SCT100
     FM211900 27010KT P6SM SCT050 SCT250
     FM220100 32006KT P6SM SCT250=



000
FTUS46 KLOX 210500 AAB
TAFBUR
TAF AMD
KBUR 210515Z 2105/2124 VRB03KT P6SM VCSH SCT025 BKN040
     FM210630 33005KT P6SM -SHRA BKN025 BKN040
     FM211400 34009KT P6SM SCT025 SCT250
     FM211800 36008KT P6SM SKC
     FM212200 36012KT P6SM SKC=



000
FTUS46 KLOX 210500 AAA
TAFVNY
TAF AMD
KVNY 210514Z 2105/2124 VRB03KT P6SM VCSH SCT025 OVC050
     FM210600 VRB03KT P6SM -SHRA BKN025 OVC040
     FM211100 34005KT P6SM VCSH SCT025 OVC040
     FM211400 34004KT P6SM SCT250
     FM211800 36010KT P6SM SKC
     FM212200 36014KT P6SM SKC=



000
FTUS46 KLOX 210300 AAA
TAFSMX
TAF AMD
KSMX 210307Z 2103/2124 13006KT P6SM VCSH FEW025 SCT070 BKN090
     FM210700 VRB03KT P6SM SCT015 OVC025
     FM211100 34003KT P6SM SCT025 OVC040
     FM211500 33004KT P6SM SCT025 SCT250
     FM211800 35009KT P6SM SCT250
     FM212200 32012KT P6SM SCT250=



000
FTUS46 KLOX 210300 AAB
TAFSBP
TAF AMD
KSBP 210305Z 2103/2124 10004KT P6SM VCSH SCT100 BKN120
      TEMPO 2103/2107 5SM -SHRA BR BKN035
     FM210700 VRB03KT P6SM BKN025
     FM211000 31004KT P6SM SCT025
     FM211800 33007KT P6SM SCT250
     FM212200 32011KT P6SM SCT250=



000
FTUS46 KLOX 210300 AAA
TAFPRB
TAF AMD
KPRB 210303Z 2103/2124 21007KT P6SM VCSH OVC070
      TEMPO 2103/2107 -SHRA BKN035
     FM210700 VRB03KT 4SM BR SCT015 OVC025
     FM211700 VRB03KT 6SM BR BKN025
     FM211900 VRB03KT P6SM SCT025 SCT250
     FM212100 01005KT P6SM SCT250=



000
FTUS46 KLOX 210200 AAB
TAFLAX
TAF AMD
KLAX 210259Z 2103/2206 26012KT P6SM FEW015 BKN045 OVC150
     FM210500 29011KT P6SM OVC050
     FM210800 30010KT P6SM VCSH BKN020 BKN035
     FM211400 34010KT P6SM SCT025
     FM211900 29008KT P6SM SCT250
     FM212300 28013KT P6SM SKC
     FM220300 28006KT P6SM SKC=



000
FTUS46 KLOX 210200 AAA
TAFLAX
TAF AMD
KLAX 210213Z 2102/2206 24008KT P6SM FEW035 OVC150
     FM210500 29011KT P6SM OVC050
     FM210800 30010KT P6SM VCSH BKN020 BKN035
     FM211400 34010KT P6SM SCT025
     FM211900 29008KT P6SM SCT250
     FM212300 28013KT P6SM SKC
     FM220300 28006KT P6SM SKC=



000
FTUS46 KLOX 210100 AAA
TAFBUR
TAF AMD
KBUR 210110Z 2101/2124 15004KT P6SM BKN029 OVC050
     FM210300 18004KT P6SM SCT030 BKN045
     FM210500 VRB03KT P6SM VCSH SCT025 BKN040
     FM211000 33005KT P6SM VCSH BKN025 BKN040
     FM211400 34009KT P6SM SCT025 SCT250
     FM211800 36008KT P6SM SKC
     FM212200 36012KT P6SM SKC=



000
FTUS46 KLOX 210100 AAA
TAFSBP
TAF AMD
KSBP 210109Z 2101/2124 34007KT P6SM VCSH SCT040 BKN060 OVC110
     FM210300 30005KT P6SM VCSH BKN025 OVC035
      TEMPO 2103/2107 5SM -SHRA BR BKN020
     FM210700 VRB03KT P6SM BKN025
     FM211000 31004KT P6SM SCT025
     FM211800 33007KT P6SM SCT250
     FM212200 32011KT P6SM SCT250=



000
FTUS46 KLOX 202300 RRA
TAFWJF
TAF
KWJF 202340Z 2100/2124 23015KT P6SM SCT100 OVC200
     FM210300 25012KT P6SM SCT080 BKN150
     FM210600 26015KT P6SM SCT015 OVC025
     FM211000 25014KT P6SM VCSH SCT015 OVC025
     FM211400 26012KT P6SM SKC
     FM212000 29015G20KT P6SM SKC=



000
FTUS46 KLOX 202300 RRA
TAFPMD
TAF
KPMD 202340Z 2100/2124 23017KT P6SM SCT100 OVC200
     FM210300 25010KT P6SM SCT080 BKN150
     FM210600 27011KT P6SM SCT015 OVC025
     FM211000 25009KT P6SM VCSH SCT025 OVC035
     FM211400 26009KT P6SM SCT250
     FM211800 29011KT P6SM SKC
     FM212200 32014KT P6SM SKC=



000
FTUS46 KLOX 202300 RRA
TAFVNY
TAF
KVNY 202340Z 2100/2124 25006KT P6SM BKN035 OVC050
     FM210200 VRB03KT P6SM BKN035 OVC050
     FM210500 VRB03KT P6SM VCSH BKN025 OVC040
     FM211100 34005KT P6SM VCSH SCT025 OVC040
     FM211400 34004KT P6SM SCT250
     FM211800 36010KT P6SM SKC
     FM212200 36014KT P6SM SKC=



000
FTUS46 KLOX 202300 RRA
TAFBUR
TAF
KBUR 202340Z 2100/2124 20007KT P6SM BKN035 OVC050
     FM210200 18005KT P6SM SCT035 BKN045
     FM210500 VRB03KT P6SM VCSH SCT025 BKN040
     FM211000 33005KT P6SM VCSH BKN025 BKN040
     FM211400 34009KT P6SM SCT025 SCT250
     FM211800 36008KT P6SM SKC
     FM212200 36012KT P6SM SKC=



000
FTUS46 KLOX 202300 RRA
TAFSBA
TAF
KSBA 202340Z 2100/2124 00000KT P6SM SCT025 OVC100
     FM210200 30005KT P6SM BKN050 BKN100
     FM210700 VRB03KT P6SM BKN080
     FM211200 33008KT P6SM SCT250
     FM211800 31010KT P6SM SCT250
     FM212200 23006KT P6SM SCT250=



000
FTUS46 KLOX 202300 RRA
TAFSMX
TAF
KSMX 202340Z 2100/2124 30007KT P6SM SCT040 OVC120
     FM210300 30006KT P6SM VCSH BKN020 OVC040
     FM210700 VRB03KT P6SM BKN008 OVC015
     FM211100 VRB03KT P6SM BKN025
     FM211500 33004KT P6SM SCT025 SCT250
     FM211800 35009KT P6SM SCT250
     FM212200 32012KT P6SM SCT250=



000
FTUS46 KLOX 202300 RRA
TAFLAX
TAF
KLAX 202340Z 2100/2206 26013KT P6SM SCT018 SCT035 BKN200
     FM210200 26008KT P6SM BKN025 BKN040
     FM210800 30010KT P6SM VCSH BKN020 BKN035
     FM211400 34010KT P6SM SCT025
     FM211900 29008KT P6SM SCT250
     FM212300 28013KT P6SM SKC
     FM220300 28006KT P6SM SKC=



000
FTUS46 KLOX 202300 RRA
TAFPRB
TAF
KPRB 202340Z 2100/2124 25006KT P6SM VCSH SCT025 BKN040
     FM210300 VRB03KT P6SM SCT015 OVC025
      TEMPO 2103/2107 5SM -SHRA BR BKN015
     FM210700 VRB03KT 4SM BR SCT007 OVC015
     FM211100 31005KT 2SM BR BKN007 OVC012
     FM211600 VRB03KT 5SM BR SCT008 OVC015
     FM211900 VRB03KT P6SM SCT020 SCT250
     FM212100 01005KT P6SM SCT250=



000
FTUS46 KLOX 202300 RRA
TAFSBP
TAF
KSBP 202340Z 2100/2124 30005KT P6SM VCSH BKN026 OVC045
     FM210300 30005KT P6SM VCSH BKN025 OVC035
      TEMPO 2103/2107 5SM -SHRA BR BKN020
     FM210700 VRB03KT P6SM BKN025
     FM211000 31004KT P6SM SCT025
     FM211800 33007KT P6SM SCT250
     FM212200 32011KT P6SM SCT250=



000
FTUS46 KLOX 202300 RRA
TAFLGB
TAF
KLGB 202340Z 2100/2124 29011KT P6SM SCT030 BKN045
     FM210300 29006KT P6SM SCT025 OVC040
     FM210800 26006KT P6SM VCSH BKN025 OVC040
     FM211200 33006KT 6SM HZ SCT025 BKN040
     FM211800 35007KT P6SM SCT250
     FM212100 28005KT P6SM SCT250=



000
FTUS46 KLOX 202200 AAB
TAFSMX
TAF AMD
KSMX 202210Z 2022/2118 30010KT P6SM BKN045
     FM210300 30006KT P6SM VCSH BKN020 OVC040
     FM210600 VRB03KT P6SM BKN008 OVC050
     FM211200 VRB03KT P6SM BKN015 BKN050=



000
FTUS46 KLOX 202100 AAA
TAFLAX
TAF AMD
KLAX 202105Z 2021/2124 26010KT P6SM SCT025 SCT040 BKN200
     FM210100 26008KT P6SM BKN020 BKN040
     FM210800 30010KT P6SM VCSH BKN015 BKN040
     FM211400 34006KT P6SM SCT020 BKN060
     FM211900 29008KT P6SM SCT250=



000
FTUS46 KLOX 202000 AAA
TAFLGB
TAF AMD
KLGB 202022Z 2020/2118 VRB05KT P6SM BKN025 OVC030
     FM202100 24007KT P6SM SCT040 BKN060
     FM210000 29006KT P6SM OVC060
     FM210800 30008KT P6SM VCSH BKN025 OVC040
     FM211200 35009KT 6SM HZ BKN030 BKN050=



000
FTUS46 KLOX 202000 AAA
TAFSBP
TAF AMD
KSBP 202021Z 2020/2118 29005KT P6SM SCT012 OVC035
     FM202100 29009KT P6SM VCSH BKN025 OVC040
     FM210300 30005KT P6SM VCSH BKN025 OVC040
     FM210700 VRB03KT P6SM OVC050
     FM211000 VRB03KT 6SM BR SCT010 BKN050 BKN100=



000
FTUS46 KLOX 202000 AAA
TAFPRB
TAF AMD
KPRB 202020Z 2020/2118 VRB04KT P6SM FEW025 OVC030
     FM202100 26006KT P6SM BKN030 BKN080
     FM210600 VRB03KT P6SM BKN060 OVC120
     FM211000 VRB03KT P6SM OVC015=



000
FTUS46 KLOX 201900 AAA
TAFSMX
TAF AMD
KSMX 201918Z 2019/2118 32005KT P6SM SCT020 OVC035
     FM202100 30010KT P6SM VCSH BKN015 OVC040
     FM210300 30006KT P6SM VCSH BKN020 OVC040
     FM210600 VRB03KT P6SM BKN008 OVC050
     FM211200 VRB03KT P6SM BKN015 BKN050=



000
FTUS46 KLOX 201700
TAFPRB
TAF
KPRB 201740Z 2018/2118 VRB03KT P6SM OVC020
     FM202100 26006KT P6SM BKN030 BKN080
     FM210600 VRB03KT P6SM BKN060 OVC120
     FM211000 VRB03KT P6SM OVC015=



000
FTUS46 KLOX 201700
TAFSMX
TAF
KSMX 201740Z 2018/2118 VRB05KT P6SM BKN010 OVC020
     FM202100 30010KT P6SM VCSH BKN015 OVC040
     FM210300 30006KT P6SM VCSH BKN020 OVC040
     FM210600 VRB03KT P6SM BKN008 OVC050
     FM211200 VRB03KT P6SM BKN015 BKN050=



000
FTUS46 KLOX 201700
TAFSBP
TAF
KSBP 201740Z 2018/2118 VRB05KT P6SM SCT025 BKN030
     FM202100 29009KT P6SM VCSH BKN025 OVC040
     FM210300 30005KT P6SM VCSH BKN025 OVC040
     FM210700 VRB03KT P6SM OVC050
     FM211000 VRB03KT 6SM BR SCT010 BKN050 BKN100=



000
FTUS46 KLOX 201700
TAFSBA
TAF
KSBA 201740Z 2018/2118 VRB05KT P6SM FEW020 SCT100
     FM202000 22007KT P6SM BKN100
     FM202300 27009KT P6SM BKN080 BKN100
     FM210200 30005KT P6SM BKN050 BKN120
     FM210700 VRB03KT P6SM BKN120
     FM211200 33005KT P6SM BKN150=



000
FTUS46 KLOX 201700
TAFBUR
TAF
KBUR 201740Z 2018/2118 VRB03KT P6SM FEW200
     FM202100 17006KT P6SM BKN100
     FM210100 18005KT P6SM BKN050 BKN100
     FM210400 VRB03KT P6SM VCSH BKN040
     FM211200 33006KT P6SM VCSH BKN025 BKN040=



000
FTUS46 KLOX 201700
TAFVNY
TAF
KVNY 201740Z 2018/2118 VRB03KT P6SM FEW200
     FM202200 16006KT P6SM BKN050 BKN120
     FM210100 22005KT P6SM BKN050
     FM210400 VRB03KT P6SM VCSH BKN025 OVC040
     FM211100 32002KT P6SM VCSH OVC040=



000
FTUS46 KLOX 201700
TAFLAX
TAF
KLAX 201740Z 2018/2124 25006KT P6SM SCT025 SCT250
     FM202100 26010KT P6SM SCT025 SCT040 BKN200
     FM210100 26008KT P6SM BKN020 BKN040
     FM210800 30010KT P6SM VCSH BKN015 BKN040
     FM211400 34006KT P6SM SCT020 BKN060
     FM211900 29008KT P6SM SCT250=



000
FTUS46 KLOX 201700
TAFPMD
TAF
KPMD 201740Z 2018/2118 VRB05KT P6SM SCT200
     FM202000 25010KT P6SM SCT200
     FM202200 24014G20KT P6SM SCT150 BKN200
     FM210300 25010KT P6SM SCT120 BKN150
     FM211400 25009KT P6SM SCT250=



000
FTUS46 KLOX 201700
TAFLGB
TAF
KLGB 201740Z 2018/2118 VRB05KT P6SM FEW020 SCT120
     FM202100 24007KT P6SM SCT040 BKN060
     FM210000 29006KT P6SM OVC060
     FM210800 30008KT P6SM VCSH BKN025 OVC040
     FM211200 35009KT 6SM HZ BKN030 BKN050=



000
FTUS46 KLOX 201700
TAFWJF
TAF
KWJF 201740Z 2018/2118 VRB05KT P6SM SCT200
     FM202000 24010KT P6SM SCT200
     FM202200 24015G25KT P6SM SCT150 BKN200
     FM210300 25012KT P6SM SCT120 BKN150
     FM211500 26006KT P6SM SCT250=



000
FTUS46 KLOX 201700 AAB
TAFSMX
TAF AMD
KSMX 201701Z 2017/2112 VRB05KT P6SM BKN008 OVC015
     FM201800 29005KT P6SM BKN020 BKN040
     FM202100 30010KT P6SM BKN025 OVC040
     FM210300 30006KT P6SM BKN020 OVC040
     FM210600 VRB03KT P6SM SCT008 BKN050=



000
FTUS46 KLOX 201700 AAA
TAFLGB
TAF AMD
KLGB 201700Z 2017/2112 VRB03KT P6SM FEW019
     FM201800 21005KT P6SM SCT025 BKN120
     FM210000 29008KT P6SM OVC040
     FM210600 26006KT P6SM BKN015 OVC040
     FM210900 29006KT P6SM VCSH BKN015 OVC030=



000
FTUS46 KLOX 201700 AAC
TAFSBP
TAF AMD
KSBP 201700Z 2017/2112 VRB03KT P6SM SCT020 BKN050
     FM201800 27008KT P6SM SCT025 BKN040
     FM202000 30012KT P6SM BKN025 OVC040
     FM210300 30006KT P6SM BKN025 OVC040
     FM210700 VRB03KT P6SM SCT010 BKN050=



000
FTUS46 KLOX 201600 AAA
TAFSMX
TAF AMD
KSMX 201620Z 2016/2112 VRB05KT 5SM BR OVC007
      TEMPO 2016/2018 VRB05KT 2SM -RA BR OVC005
     FM201800 29005KT P6SM SCT025 BKN040
     FM202100 30010KT P6SM BKN025 OVC040
     FM210300 30006KT P6SM BKN020 OVC040
     FM210600 VRB03KT P6SM SCT008 BKN050=



000
FTUS46 KLOX 201600 AAB
TAFPRB
TAF AMD
KPRB 201618Z 2016/2112 VRB03KT P6SM FEW005 OVC019
     FM201800 VRB03KT P6SM SCT015 BKN050
     FM202100 28008KT P6SM BKN080
     FM210600 VRB03KT P6SM BKN060 OVC120=



000
FTUS46 KLOX 201500 AAB
TAFSBP
TAF AMD
KSBP 201526Z 2015/2112 VRB03KT 5SM BR SCT002 BKN045
     FM201600 VRB03KT 6SM BR FEW002 BKN050
     FM201800 27008KT P6SM SCT025 BKN040
     FM202000 30012KT P6SM BKN025 OVC040
     FM210300 30006KT P6SM BKN025 OVC040
     FM210700 VRB03KT P6SM SCT010 BKN050=



000
FTUS46 KLOX 201400 AAA
TAFSBP
TAF AMD
KSBP 201458Z 2015/2112 VRB03KT 1/2SM FG BKN002
      TEMPO 2015/2016 5SM BR FEW002 BKN040
     FM201600 VRB03KT 6SM BR FEW002 BKN050
     FM201800 27008KT P6SM SCT025 BKN040
     FM202000 30012KT P6SM BKN025 OVC040
     FM210300 30006KT P6SM BKN025 OVC040
     FM210700 VRB03KT P6SM SCT010 BKN050=



000
FTUS46 KLOX 201400 AAA
TAFLAX
TAF AMD
KLAX 201451Z 2015/2118 05005KT P6SM FEW015 SCT150
     FM201800 25006KT P6SM BKN025 BKN120
     FM202200 26012KT P6SM OVC040
     FM210600 29008KT P6SM BKN015 OVC040
     FM210900 28009KT P6SM VCSH BKN015 OVC030
     FM211400 33007KT P6SM SCT020 BKN040=



000
FTUS46 KLOX 201200 AAA
TAFPRB
TAF AMD
KPRB 201228Z 2012/2112 VRB03KT 1/4SM FG VV001
     FM201400 VRB03KT 4SM BR BKN002 OVC015
     FM201800 VRB03KT P6SM SCT015 BKN050
     FM202100 28008KT P6SM BKN080
     FM210600 VRB03KT P6SM BKN060 OVC120=



000
FTUS46 KLOX 201200 AAA
TAFWJF
TAF AMD
KWJF 201212Z 2012/2112 28007KT P6SM SKC
     FM201800 24010KT P6SM SCT200
     FM202100 24015G25KT P6SM SCT150 BKN200
     FM210300 25012KT P6SM SCT120 BKN150=



000
FTUS46 KLOX 201200 AAA
TAFPMD
TAF AMD
KPMD 201207Z 2012/2112 18007KT P6SM SKC
     FM201800 24010KT P6SM SCT200
     FM202100 24014G20KT P6SM SCT150 BKN200
     FM210300 25012KT P6SM SCT120 BKN150=



000
FTUS46 KLOX 201100 AAA
TAFVNY
TAF AMD
KVNY 201155Z 2012/2112 VRB03KT P6SM SKC
     FM201500 VRB03KT P6SM BKN200
     FM202200 16006KT P6SM BKN025 BKN120
     FM210400 VRB03KT P6SM VCSH BKN025 OVC040=



000
FTUS46 KLOX 201100 RRA
TAFWJF
TAF
KWJF 201149Z 2012/2112 27007KT P6SM SCT250
     FM201700 24010KT P6SM BKN250
     FM202100 24015G25KT P6SM FEW060 BKN250
     FM210100 26012KT P6SM VCSH BKN025 BKN050=



000
FTUS46 KLOX 201100 RRA
TAFPMD
TAF
KPMD 201149Z 2012/2112 21008KT P6SM SCT250
     FM201800 24010KT P6SM BKN250
     FM202100 24014G20KT P6SM FEW060 BKN250
     FM210100 25012KT P6SM VCSH BKN025 OVC050=



000
FTUS46 KLOX 201100 RRA
TAFLAX
TAF
KLAX 201149Z 2012/2118 VRB03KT P6SM FEW015
     FM201400 VRB03KT P6SM BKN015
     FM201800 25006KT P6SM BKN025 BKN120
     FM202200 26012KT P6SM OVC040
     FM210600 29008KT P6SM BKN015 OVC040
     FM210900 28009KT P6SM VCSH BKN015 OVC030
     FM211400 33007KT P6SM SCT020 BKN040=



000
FTUS46 KLOX 201100 RRA
TAFLGB
TAF
KLGB 201149Z 2012/2112 VRB03KT P6SM SKC
     FM201400 VRB03KT P6SM BKN015
     FM201800 21005KT P6SM BKN025 BKN120
     FM210000 29008KT P6SM OVC040
     FM210600 26006KT P6SM BKN015 OVC040
     FM210900 29006KT P6SM VCSH BKN015 OVC030=



000
FTUS46 KLOX 201100 RRA
TAFPRB
TAF
KPRB 201149Z 2012/2112 VRB03KT 4SM BR BKN008 OVC015
     FM201800 VRB03KT P6SM SCT015 BKN050
     FM202100 28008KT P6SM BKN080
     FM210600 VRB03KT P6SM BKN060 OVC120=



000
FTUS46 KLOX 201100 RRA
TAFSMX
TAF
KSMX 201149Z 2012/2112 VRB03KT 2SM BR OVC002
     FM201500 VRB03KT 5SM BR SCT005 BKN025
     FM201800 29005KT P6SM SCT025 BKN040
     FM202100 30010KT P6SM BKN025 OVC040
     FM210300 30006KT P6SM BKN020 OVC040
     FM210600 VRB03KT P6SM SCT008 BKN050=



000
FTUS46 KLOX 201100 RRA
TAFSBP
TAF
KSBP 201149Z 2012/2112 VRB03KT 5SM BR SCT002 OVC050
     FM201500 VRB03KT P6SM BKN006 OVC050
     FM201800 27008KT P6SM SCT025 BKN040
     FM202000 30012KT P6SM BKN025 OVC040
     FM210300 30006KT P6SM BKN025 OVC040
     FM210700 VRB03KT P6SM SCT010 BKN050=



000
FTUS46 KLOX 201100 RRA
TAFSBA
TAF
KSBA 201149Z 2012/2112 VRB03KT P6SM SKC
     FM201400 16005KT P6SM SCT020 BKN150
     FM202000 22007KT P6SM BKN120
     FM202200 29012KT P6SM BKN040 BKN100
     FM210100 30008KT P6SM BKN040 BKN120
     FM210700 VRB03KT P6SM BKN120=



000
FTUS46 KLOX 201100 RRA
TAFVNY
TAF
KVNY 201149Z 2012/2112 VRB03KT P6SM SCT017 SCT035
     FM202100 16006KT P6SM VCSH BKN017 BKN035
     FM210300 VRB03KT P6SM VCSH SCT025 BKN040=



000
FTUS46 KLOX 201100 RRA
TAFBUR
TAF
KBUR 201149Z 2012/2112 VRB03KT P6SM SKC
     FM201500 VRB03KT P6SM BKN200
     FM202200 18009KT P6SM BKN025 BKN120
     FM210400 VRB03KT P6SM VCSH BKN025 OVC040=



000
FTUS46 KLOX 201000 AAE
TAFSBP
TAF AMD
KSBP 201043Z 2011/2106 VRB03KT 1SM BR BKN002 OVC050
     FM201500 VRB03KT 4SM BR BKN006 OVC050
     FM201800 27008KT P6SM SCT025 BKN040
     FM202000 32010KT P6SM -SHRA BKN025 OVC040
     FM210300 30006KT P6SM BKN012=



000
FTUS46 KLOX 200900 AAB
TAFLAX
TAF AMD
KLAX 200952Z 2010/2112 05006KT P6SM FEW015
     FM201300 VRB03KT P6SM BKN020 OVC040
     FM201800 25010KT P6SM VCSH BKN025 BKN050
     FM210400 29008KT P6SM VCSH BKN015 BKN030=



000
FTUS46 KLOX 200900 AAB
TAFLAX
TAF AMD
KLAX 200952Z 2010/2112 05006KT P6SM FEW015
     FM201300 VRB03KT P6SM BKN020 OVC040
     FM201800 25010KT P6SM VCSH BKN025 BKN050
     FM210400 29008KT P6SM VCSH BKN015 BKN030=



000
FTUS46 KLOX 200900 AAB
TAFPRB
TAF AMD
KPRB 200910Z 2009/2106 VRB03KT P6SM OVC004
      TEMPO 2009/2010 5SM -SHRA BKN007 OVC015
     FM201800 22010KT P6SM SCT025 BKN050
     FM202100 23005KT P6SM VCSH BKN025 OVC040
     FM210400 30005KT P6SM BKN040 BKN250=



000
FTUS46 KLOX 200900 AAB
TAFLGB
TAF AMD
KLGB 200910Z 2009/2106 VRB03KT P6SM SKC
     FM201300 13003KT P6SM BKN022 OVC045
     FM201800 21005KT P6SM VCSH BKN025 BKN050
     FM210000 29008KT P6SM VCSH BKN015 BKN030=



000
FTUS46 KLOX 200900 AAD
TAFSBP
TAF AMD
KSBP 200909Z 2009/2106 VRB03KT P6SM OVC040
      TEMPO 2009/2012 4SM -SHRA BR BKN007 OVC015
     FM201800 27008KT P6SM SCT025 BKN040
     FM202000 32010KT P6SM -SHRA BKN025 OVC040
     FM210300 30006KT P6SM BKN012=



    US Dept of Commerce
    National Oceanic and Atmospheric Administration
    National Weather Service
    1325 East West Highway
    Silver Spring, MD 20910
    Page Author: NWS Internet Services Team
Disclaimer
Information Quality
Credits
Glossary
Privacy Policy
Freedom of Information Act (FOIA)
About Us
Career Opportunities